createdAt,value
2022-08-07T00:03:08.723Z,86.73
2022-08-07T00:08:09.429Z,86.86
2022-08-07T00:13:23.850Z,86.17
2022-08-07T00:18:28.042Z,85.63
2022-08-07T00:23:28.572Z,85.71
2022-08-07T00:28:33.152Z,86.85
2022-08-07T00:33:33.039Z,87.09
2022-08-07T00:38:33.390Z,86.08
2022-08-07T00:43:59.359Z,86.88
2022-08-07T00:48:51.838Z,87.19
2022-08-07T00:53:55.883Z,87.52
2022-08-07T00:58:55.330Z,88.06
2022-08-07T01:03:59.970Z,88.23
2022-08-07T01:09:01.120Z,88.02
2022-08-07T01:14:01.335Z,88.43
2022-08-07T01:19:01.205Z,87.94
2022-08-07T01:24:04.104Z,87.04
2022-08-07T01:29:04.023Z,87.43
2022-08-07T01:34:06.004Z,87.75
2022-08-07T01:39:10.154Z,88.29
2022-08-07T01:44:13.236Z,88.34
2022-08-07T01:49:13.788Z,88.91
2022-08-07T01:54:32.958Z,88.81
2022-08-07T01:59:48.386Z,88.17
2022-08-07T02:04:57.408Z,88.73
2022-08-07T02:10:02.529Z,88.71
2022-08-07T02:15:06.891Z,88.92
2022-08-07T02:20:19.943Z,88.98
2022-08-07T02:26:10.905Z,89.17
2022-08-07T02:30:47.812Z,89.43
2022-08-07T02:36:29.365Z,89.40
2022-08-07T02:41:11.791Z,89.47
2022-08-07T02:46:24.590Z,89.51
2022-08-07T02:51:42.587Z,89.49
2022-08-07T02:56:55.095Z,89.71
2022-08-07T03:01:55.686Z,89.99
2022-08-07T03:06:58.086Z,89.89
2022-08-07T03:12:21.899Z,90.00
2022-08-07T03:17:22.576Z,89.91
2022-08-07T03:22:30.257Z,89.90
2022-08-07T03:28:08.761Z,89.93
2022-08-07T03:32:59.110Z,90.24
2022-08-07T03:38:07.068Z,90.29
2022-08-07T03:43:14.501Z,90.60
2022-08-07T03:48:18.703Z,90.80
2022-08-07T03:53:19.844Z,90.91
2022-08-07T03:59:07.773Z,91.00
2022-08-07T04:04:04.951Z,90.95
2022-08-07T04:09:08.414Z,91.02
2022-08-07T04:14:38.186Z,91.01
2022-08-07T04:19:51.903Z,91.08
2022-08-07T04:24:54.876Z,91.08
2022-08-07T04:30:02.186Z,91.01
2022-08-07T04:35:18.772Z,91.05
2022-08-07T04:40:21.124Z,91.13
2022-08-07T04:45:57.941Z,91.13
2022-08-07T04:50:52.971Z,91.25
2022-08-07T04:58:12.383Z,91.35
2022-08-07T05:01:38.983Z,91.42
2022-08-07T05:06:51.748Z,91.36
2022-08-07T05:11:58.148Z,91.43
2022-08-07T05:17:11.725Z,91.43
2022-08-07T05:22:26.670Z,91.41
2022-08-07T05:28:03.087Z,91.39
2022-08-07T05:32:51.756Z,90.84
2022-08-07T05:38:08.769Z,90.76
2022-08-07T05:43:11.553Z,90.47
2022-08-07T05:48:12.736Z,89.83
2022-08-07T05:54:12.341Z,89.54
2022-08-07T05:58:39.214Z,88.69
2022-08-07T06:03:53.748Z,87.92
2022-08-07T06:08:58.509Z,87.96
2022-08-07T06:14:13.785Z,87.79
2022-08-07T06:19:47.827Z,87.40
2022-08-07T06:24:56.919Z,85.43
2022-08-07T06:29:57.642Z,85.67
2022-08-07T06:34:57.711Z,82.86
2022-08-07T06:40:16.275Z,82.33
2022-08-07T06:45:21.064Z,78.50
2022-08-07T06:50:26.080Z,79.67
2022-08-07T06:55:53.629Z,77.14
2022-08-07T07:00:54.468Z,76.51
2022-08-07T07:06:04.026Z,73.59
2022-08-07T07:11:14.114Z,71.72
2022-08-07T07:16:32.293Z,69.06
2022-08-07T07:22:05.409Z,67.50
2022-08-07T07:27:04.530Z,67.90
2022-08-07T07:32:08.950Z,67.04
2022-08-07T07:37:21.509Z,65.63
2022-08-07T07:42:32.769Z,66.85
2022-08-07T07:47:42.918Z,64.19
2022-08-07T07:52:53.602Z,64.23
2022-08-07T07:57:58.217Z,63.49
2022-08-07T08:03:06.104Z,60.39
2022-08-07T08:08:09.472Z,58.82
2022-08-07T08:13:36.745Z,61.27
2022-08-07T08:18:52.861Z,57.86
2022-08-07T08:24:34.409Z,60.35
2022-08-07T08:29:55.487Z,57.45
2022-08-07T08:34:58.642Z,57.07
2022-08-07T08:39:59.383Z,58.74
2022-08-07T08:45:13.490Z,55.09
2022-08-07T08:50:34.975Z,55.65
2022-08-07T08:55:54.330Z,57.27
2022-08-07T09:01:24.336Z,56.57
2022-08-07T09:06:47.651Z,57.13
2022-08-07T09:12:19.837Z,53.92
2022-08-07T09:17:59.739Z,53.75
2022-08-07T09:24:32.307Z,53.61
2022-08-07T09:29:24.538Z,51.82
2022-08-07T09:34:27.311Z,50.35
2022-08-07T09:39:53.987Z,48.42
2022-08-07T09:47:24.704Z,50.10
2022-08-07T09:50:55.846Z,53.82
2022-08-07T09:56:37.599Z,53.48
2022-08-07T10:02:10.382Z,54.55
2022-08-07T10:07:52.870Z,51.97
2022-08-07T10:13:29.862Z,54.07
2022-08-07T10:19:11.083Z,52.70
2022-08-07T10:24:57.599Z,54.23
2022-08-07T10:30:12.384Z,51.49
2022-08-07T10:35:27.179Z,45.61
2022-08-07T10:40:58.041Z,47.35
2022-08-07T10:46:09.214Z,46.97
2022-08-07T10:51:57.206Z,51.24
2022-08-07T10:56:55.671Z,50.46
2022-08-07T11:02:12.082Z,48.11
2022-08-07T11:07:59.453Z,47.47
2022-08-07T11:13:01.987Z,49.47
2022-08-07T11:18:12.497Z,49.71
2022-08-07T11:23:30.623Z,43.50
2022-08-07T11:28:53.344Z,43.96
2022-08-07T11:34:10.260Z,41.58
2022-08-07T11:39:58.874Z,40.06
2022-08-07T11:45:14.603Z,38.23
2022-08-07T11:50:44.526Z,41.38
2022-08-07T11:56:35.705Z,40.75
2022-08-07T12:02:01.287Z,45.38
2022-08-07T12:07:27.658Z,40.01
2022-08-07T12:12:38.249Z,41.60
2022-08-07T12:17:59.185Z,39.65
2022-08-07T12:23:37.391Z,34.64
2022-08-07T12:28:58.831Z,42.27
2022-08-07T12:34:04.106Z,42.89
2022-08-07T12:39:09.352Z,41.91
2022-08-07T12:44:28.308Z,41.95
2022-08-07T12:49:48.873Z,36.90
2022-08-07T12:55:05.555Z,39.21
2022-08-07T13:00:20.713Z,40.25
2022-08-07T13:06:03.857Z,39.53
2022-08-07T13:12:02.077Z,40.85
2022-08-07T13:17:07.293Z,41.49
2022-08-07T13:22:27.479Z,38.80
2022-08-07T13:28:11.617Z,35.38
2022-08-07T13:33:06.225Z,32.38
2022-08-07T13:38:36.345Z,30.15
2022-08-07T13:43:43.918Z,26.31
2022-08-07T13:48:59.365Z,27.53
2022-08-07T13:54:04.630Z,26.44
2022-08-07T13:59:05.973Z,25.81
2022-08-07T14:04:21.527Z,26.26
2022-08-07T14:10:17.347Z,26.70
2022-08-07T14:14:57.486Z,27.05
2022-08-07T14:20:41.971Z,26.94
2022-08-07T14:25:39.319Z,26.66
2022-08-07T14:30:54.080Z,26.14
2022-08-07T14:36:02.477Z,27.39
2022-08-07T14:41:05.231Z,25.56
2022-08-07T14:46:05.528Z,25.58
2022-08-07T14:51:15.911Z,24.67
2022-08-07T14:56:30.189Z,25.84
2022-08-07T15:01:42.918Z,26.02
2022-08-07T15:06:53.228Z,28.76
2022-08-07T15:12:03.192Z,30.38
2022-08-07T15:17:19.480Z,28.97
2022-08-07T15:22:29.314Z,28.57
2022-08-07T15:27:35.590Z,28.57
2022-08-07T15:32:50.691Z,28.54
2022-08-07T15:38:04.625Z,30.69
2022-08-07T15:43:53.493Z,31.02
2022-08-07T15:49:11.754Z,28.64
2022-08-07T15:54:12.011Z,27.08
2022-08-07T15:59:17.478Z,29.21
2022-08-07T16:04:20.453Z,28.04
2022-08-07T16:09:41.863Z,27.46
2022-08-07T16:15:07.296Z,26.70
2022-08-07T16:20:33.453Z,26.80
2022-08-07T16:25:54.117Z,26.90
2022-08-07T16:31:10.005Z,27.27
2022-08-07T16:37:02.897Z,26.98
2022-08-07T16:42:21.489Z,26.89
2022-08-07T16:48:02.596Z,27.78
2022-08-07T16:54:01.942Z,27.81
2022-08-07T16:59:10.565Z,28.45
2022-08-07T17:04:31.144Z,28.61
2022-08-07T17:10:07.049Z,28.55
2022-08-07T17:15:20.654Z,29.23
2022-08-07T17:20:33.187Z,29.27
2022-08-07T17:25:51.106Z,30.02
2022-08-07T17:31:15.985Z,30.82
2022-08-07T17:36:26.095Z,32.15
2022-08-07T17:42:02.165Z,33.58
2022-08-07T17:47:09.289Z,34.92
2022-08-07T17:52:35.660Z,35.87
2022-08-07T17:58:02.505Z,37.80
2022-08-07T18:03:19.518Z,39.34
2022-08-07T18:08:27.050Z,40.93
2022-08-07T18:13:48.611Z,42.44
2022-08-07T18:21:03.066Z,43.88
2022-08-07T18:24:34.392Z,44.97
2022-08-07T18:30:06.226Z,45.97
2022-08-07T18:35:27.477Z,46.81
2022-08-07T18:40:49.266Z,47.55
2022-08-07T18:46:25.261Z,47.10
2022-08-07T18:52:33.922Z,47.83
2022-08-07T18:57:29.445Z,49.36
2022-08-07T19:02:42.516Z,50.44
2022-08-07T19:08:05.686Z,52.30
2022-08-07T19:13:12.004Z,52.61
2022-08-07T19:18:34.402Z,52.29
2022-08-07T19:23:58.110Z,52.53
2022-08-07T19:31:05.680Z,53.20
2022-08-07T19:34:33.725Z,53.89
2022-08-07T19:39:56.573Z,54.51
2022-08-07T19:45:00.682Z,55.32
2022-08-07T19:50:44.142Z,55.97
2022-08-07T19:55:57.536Z,57.39
2022-08-07T20:00:57.472Z,58.04
2022-08-07T20:06:04.439Z,58.80
2022-08-07T20:11:09.860Z,59.59
2022-08-07T20:16:32.287Z,60.03
2022-08-07T20:21:41.953Z,60.60
2022-08-07T20:26:54.799Z,61.00
2022-08-07T20:31:58.572Z,61.31
2022-08-07T20:37:02.170Z,62.11
2022-08-07T20:42:03.439Z,61.27
2022-08-07T20:47:09.404Z,61.35
2022-08-07T20:52:17.204Z,63.05
2022-08-07T20:57:22.950Z,64.20
2022-08-07T21:02:54.109Z,64.22
2022-08-07T21:07:58.041Z,65.17
2022-08-07T21:13:04.633Z,66.41
2022-08-07T21:18:25.396Z,66.75
2022-08-07T21:23:50.378Z,67.48
2022-08-07T21:28:56.612Z,67.34
2022-08-07T21:34:13.073Z,67.65
2022-08-07T21:39:45.190Z,66.74
2022-08-07T21:44:55.554Z,67.60
2022-08-07T21:50:04.784Z,68.01
2022-08-07T21:55:29.962Z,70.48
2022-08-07T22:00:31.027Z,70.33
2022-08-07T22:05:45.822Z,69.57
2022-08-07T22:10:53.910Z,68.79
2022-08-07T22:16:43.138Z,70.46
2022-08-07T22:22:04.694Z,70.56
2022-08-07T22:27:10.392Z,71.46
2022-08-07T22:32:21.283Z,71.30
2022-08-07T22:38:02.975Z,71.98
2022-08-07T22:43:00.151Z,71.73
2022-08-07T22:48:54.886Z,71.95
2022-08-07T22:54:06.429Z,72.00
2022-08-07T22:59:52.878Z,73.21
2022-08-07T23:06:09.291Z,74.67
2022-08-07T23:11:19.391Z,75.06
2022-08-07T23:16:44.471Z,75.46
2022-08-07T23:21:57.968Z,75.35
2022-08-07T23:27:35.759Z,76.70
2022-08-07T23:34:21.551Z,75.87
2022-08-07T23:39:14.798Z,77.12
2022-08-07T23:44:43.333Z,77.83
2022-08-07T23:50:30.267Z,77.45
2022-08-07T23:55:53.419Z,76.81
